Terminal Aerodrome Forecast
Issued by NWS

Home | Current Version | Previous Version | Text Only | Print | Product List | Glossary On
Versions: 1 2 3 4 5 6 7 8 9 10 11 12 13 14 15 16 17 18 19 20 21 22 23 24 25 26
972
FTUS45 KGGW 222320
TAFGDV
TAF
KGDV 222320Z 2300/2324 27019G27KT P6SM VCSH BKN090
     FM230200 28017KT P6SM SCT090 WS020/30050KT
     FM230500 28019G28KT P6SM SCT090=

USA.gov is the U.S. government's official web portal to all federal, state and local government web resources and services.